Time;durP1;ratioP1;P1;durP2;ratioP2;P2;SDS_P1;SDS_P2;PMS_P1;PMS_P2;Temp;Humidity;BMP_temperature;BMP_pressure;BME280_temperature;BME280_humidity;BME280_pressure;Samples;Min_cycle;Max_cycle;Signal;HPM_P1;HPM_P2
2022/03/03 00:00:38;;;;;;;24.73;17.07;;;;;;;5.36;58.54;99339.00;5053619;28;20305;-60
2022/03/03 00:03:05;;;;;;;26.00;17.57;;;;;;;5.38;58.92;99334.00;5053644;28;20559;-61
2022/03/03 00:05:32;;;;;;;22.83;16.90;;;;;;;5.23;59.29;99332.66;5053462;28;20201;-60
2022/03/03 00:07:59;;;;;;;21.83;15.83;;;;;;;5.23;59.37;99321.59;5053730;28;20207;-60
2022/03/03 00:10:28;;;;;;;20.07;16.83;;;;;;;5.17;59.32;99322.25;5053787;28;20193;-60
2022/03/03 00:12:54;;;;;;;21.87;17.27;;;;;;;5.19;59.50;99328.25;5053972;28;20203;-60
2022/03/03 00:15:22;;;;;;;22.47;17.07;;;;;;;5.19;60.14;99328.25;5053977;28;20194;-60
2022/03/03 00:17:48;;;;;;;25.53;19.17;;;;;;;5.19;60.02;99328.25;5053809;28;20193;-60
2022/03/03 00:20:15;;;;;;;21.00;17.33;;;;;;;5.23;59.09;99327.56;5053532;28;20660;-61
2022/03/03 00:22:43;;;;;;;23.40;17.20;;;;;;;5.20;59.87;99330.00;5053610;28;20566;-60
2022/03/03 00:25:10;;;;;;;20.10;16.20;;;;;;;5.18;59.40;99318.03;5053378;28;20196;-60
2022/03/03 00:27:38;;;;;;;18.13;16.07;;;;;;;5.14;59.44;99316.16;5053419;28;20279;-60
2022/03/03 00:30:06;;;;;;;20.90;17.00;;;;;;;5.16;59.36;99323.06;5053292;28;20222;-60
2022/03/03 00:32:40;;;;;;;22.75;18.95;;;;;;;5.22;58.70;99309.66;5052491;28;20530;-61
2022/03/03 00:35:08;;;;;;;19.60;17.03;;;;;;;5.26;58.83;99311.50;5053320;28;20551;-61
2022/03/03 00:37:35;;;;;;;21.37;16.80;;;;;;;5.29;58.32;99304.84;5002229;28;20200;-60
2022/03/03 00:40:02;;;;;;;22.93;16.13;;;;;;;5.27;57.94;99310.72;5053050;28;20222;-61
2022/03/03 00:42:29;;;;;;;20.00;15.53;;;;;;;5.23;57.66;99304.63;5053355;28;20226;-61
2022/03/03 00:44:57;;;;;;;17.17;15.33;;;;;;;5.25;57.61;99310.63;5053203;28;20278;-60
2022/03/03 00:47:24;;;;;;;20.37;15.60;;;;;;;5.30;57.57;99310.81;5053080;28;20210;-61
2022/03/03 00:49:51;;;;;;;19.40;15.77;;;;;;;5.29;58.03;99298.88;5053008;28;20196;-60
2022/03/03 00:52:18;;;;;;;19.70;15.20;;;;;;;5.29;58.17;99297.19;5053414;28;20198;-60
2022/03/03 00:54:45;;;;;;;21.35;16.98;;;;;;;5.31;58.16;99299.78;5052934;28;20539;-60
2022/03/03 00:57:12;;;;;;;18.40;15.93;;;;;;;5.35;57.05;99304.19;5053092;28;20198;-61
2022/03/03 00:59:39;;;;;;;20.53;15.83;;;;;;;5.30;58.32;99304.00;5052934;28;20737;-60
2022/03/03 01:02:07;;;;;;;19.80;14.90;;;;;;;5.31;58.12;99307.44;5052813;28;20192;-60
2022/03/03 01:04:35;;;;;;;18.80;15.13;;;;;;;5.30;57.87;99305.72;5053309;28;20197;-61
2022/03/03 01:07:01;;;;;;;16.67;14.40;;;;;;;5.28;58.27;99302.22;5053148;28;20316;-61
2022/03/03 01:09:29;;;;;;;16.63;14.53;;;;;;;5.28;57.78;99303.09;5052838;28;21037;-61
2022/03/03 01:11:55;;;;;;;18.70;15.40;;;;;;;5.27;58.18;99296.25;5053033;28;20194;-61
2022/03/03 01:14:23;;;;;;;16.33;14.40;;;;;;;5.21;57.87;99300.31;5052913;28;20353;-60
2022/03/03 01:16:50;;;;;;;17.70;15.27;;;;;;;5.29;57.83;99297.19;5053086;28;20194;-61
2022/03/03 01:19:19;;;;;;;18.35;16.45;;;;;;;5.34;58.00;99298.22;5051638;28;20838;-60
2022/03/03 01:21:46;;;;;;;20.57;15.03;;;;;;;5.44;57.52;99296.00;5052413;28;20193;-61
2022/03/03 01:24:13;;;;;;;18.33;14.67;;;;;;;4.93;57.03;99209.38;5052580;28;20582;-61
2022/03/03 01:26:40;;;;;;;18.13;14.67;;;;;;;5.38;57.41;99283.91;5052527;28;20193;-60
2022/03/03 01:29:07;;;;;;;14.67;13.10;;;;;;;5.38;57.39;99305.13;5052303;28;20324;-60
2022/03/03 01:31:34;;;;;;;20.00;14.27;;;;;;;5.29;56.75;99289.56;5051877;28;20287;-60
2022/03/03 01:34:01;;;;;;;18.80;14.73;;;;;;;5.25;57.98;99287.72;5052229;28;20809;-60
2022/03/03 01:36:30;;;;;;;17.27;13.60;;;;;;;5.26;57.50;99294.56;5052161;28;20193;-60
2022/03/03 01:38:57;;;;;;;17.53;13.87;;;;;;;5.30;57.34;99285.34;5052153;28;20233;-59
2022/03/03 01:41:23;;;;;;;17.55;15.70;;;;;;;5.30;56.89;99290.44;5051283;28;20522;-60
2022/03/03 01:43:50;;;;;;;19.50;13.67;;;;;;;5.33;57.60;99287.97;5051963;28;20285;-60
2022/03/03 01:46:17;;;;;;;16.67;14.07;;;;;;;5.41;57.53;99281.47;5050165;28;20196;-60
2022/03/03 01:48:45;;;;;;;17.67;14.03;;;;;;;5.33;57.55;99288.84;5048959;28;20200;-60
2022/03/03 01:51:12;;;;;;;17.13;13.57;;;;;;;5.16;56.85;99253.44;5051620;28;20287;-60
2022/03/03 01:53:41;;;;;;;17.13;13.33;;;;;;;5.34;58.04;99277.84;5050510;28;20199;-60
2022/03/03 01:56:08;;;;;;;19.33;14.17;;;;;;;5.32;58.43;99281.16;5051757;28;20285;-60
2022/03/03 01:58:37;;;;;;;18.53;14.40;;;;;;;5.30;57.48;99278.53;5051694;28;20200;-60
2022/03/03 02:01:04;;;;;;;18.77;13.77;;;;;;;5.31;57.55;99284.50;5051674;28;20221;-60
2022/03/03 02:03:31;;;;;;;15.30;13.20;;;;;;;5.37;57.52;99292.34;5051524;28;20212;-60
2022/03/03 02:05:58;;;;;;;19.80;14.33;;;;;;;5.37;57.06;99282.16;5051710;28;20192;-60
2022/03/03 02:08:25;;;;;;;18.83;13.30;;;;;;;5.29;58.11;99283.59;5051642;28;20247;-60
2022/03/03 02:10:54;;;;;;;15.50;13.27;;;;;;;5.20;57.42;99280.72;5051642;28;20228;-60
2022/03/03 02:13:21;;;;;;;19.43;14.13;;;;;;;5.18;58.33;99290.88;5051776;28;20226;-60
2022/03/03 02:15:50;;;;;;;18.57;14.47;;;;;;;5.22;57.81;99295.25;5051480;28;20706;-60
2022/03/03 02:18:17;;;;;;;18.83;13.77;;;;;;;5.16;58.39;99282.34;5051015;28;20198;-59
2022/03/03 02:20:46;;;;;;;18.63;14.17;;;;;;;5.13;58.54;99281.34;5051253;28;20233;-60
2022/03/03 02:23:13;;;;;;;17.47;13.73;;;;;;;5.09;57.80;99284.59;5051322;28;20189;-60
2022/03/03 02:25:40;;;;;;;15.87;13.30;;;;;;;5.01;58.58;99280.91;5051162;28;20655;-60
2022/03/03 02:28:07;;;;;;;16.80;13.60;;;;;;;4.94;58.45;99272.22;5051214;28;20188;-60
2022/03/03 02:30:34;;;;;;;16.83;12.70;;;;;;;4.96;58.45;99275.69;5050199;28;20313;-60
2022/03/03 02:33:01;;;;;;;15.63;13.20;;;;;;;4.94;59.28;99267.13;5050160;28;20228;-60
2022/03/03 02:35:29;;;;;;;17.23;12.80;;;;;;;4.96;58.63;99272.25;5050536;28;20200;-60
2022/03/03 02:37:57;;;;;;;18.73;13.30;;;;;;;4.90;59.74;99277.13;5050541;28;20198;-60
2022/03/03 02:40:24;;;;;;;20.73;13.30;;;;;;;4.89;59.75;99275.44;5050514;28;20630;-61
2022/03/03 02:42:53;;;;;;;15.37;12.80;;;;;;;4.88;59.67;99274.56;5050291;28;20192;-61
2022/03/03 02:45:21;;;;;;;15.10;12.83;;;;;;;4.86;60.07;99271.09;5047539;28;20192;-60
2022/03/03 02:47:50;;;;;;;16.40;13.30;;;;;;;4.85;59.99;99274.44;5071138;28;20196;-60
2022/03/03 02:50:18;;;;;;;20.73;14.23;;;;;;;4.65;60.31;99239.78;5062628;28;20668;-60
2022/03/03 02:52:45;;;;;;;21.53;13.63;;;;;;;4.87;60.33;99277.91;5051087;28;20189;-60
2022/03/03 02:55:14;;;;;;;17.27;13.33;;;;;;;4.91;59.35;99276.34;5050847;28;20547;-60
2022/03/03 02:57:55;;;;;;;17.53;14.23;;;;;;;4.87;60.56;99279.56;5050821;28;20197;-59
2022/03/03 03:00:25;;;;;;;17.50;13.53;;;;;;;4.81;60.52;99272.59;5050727;28;20649;-60
2022/03/03 03:02:52;;;;;;;18.03;13.80;;;;;;;4.83;59.81;99277.75;5050860;28;20195;-59
2022/03/03 03:05:19;;;;;;;16.50;13.90;;;;;;;4.84;60.64;99275.25;5042587;28;20201;-60
2022/03/03 03:07:46;;;;;;;18.23;13.30;;;;;;;4.83;60.00;99265.91;5031180;28;20206;-60
2022/03/03 03:10:15;;;;;;;17.00;13.30;;;;;;;4.84;59.99;99265.06;5030760;28;20193;-60
2022/03/03 03:12:42;;;;;;;17.87;14.37;;;;;;;4.80;60.27;99275.09;5030661;28;20252;-60
2022/03/03 03:15:09;;;;;;;18.23;13.50;;;;;;;4.79;60.68;99276.75;5030656;28;20198;-60
2022/03/03 03:17:36;;;;;;;17.13;13.47;;;;;;;4.72;60.46;99273.13;5030351;28;20202;-60
2022/03/03 03:20:03;;;;;;;21.20;14.67;;;;;;;4.72;60.39;99267.19;5030616;28;20313;-61
2022/03/03 03:22:30;;;;;;;16.37;13.77;;;;;;;4.72;60.27;99270.59;5030588;28;20290;-60
2022/03/03 03:24:57;;;;;;;19.20;14.30;;;;;;;4.66;60.77;99256.78;5030367;28;20285;-60
2022/03/03 03:27:25;;;;;;;19.03;15.00;;;;;;;4.66;60.73;99261.88;5030490;28;20197;-60
2022/03/03 03:29:52;;;;;;;19.27;15.63;;;;;;;4.70;60.98;99267.13;5047831;28;20458;-59
2022/03/03 03:32:19;;;;;;;17.60;14.10;;;;;;;4.73;60.87;99263.81;5050151;28;20784;-59
2022/03/03 03:34:46;;;;;;;16.27;13.07;;;;;;;4.70;59.87;99262.03;5050260;28;20200;-59
2022/03/03 03:37:13;;;;;;;18.37;13.33;;;;;;;4.75;60.18;99267.31;5050159;28;20218;-59
2022/03/03 03:39:40;;;;;;;20.30;14.33;;;;;;;4.69;61.01;99265.41;5050076;28;20278;-59
2022/03/03 03:42:08;;;;;;;15.40;13.67;;;;;;;4.71;60.10;99260.34;5050135;28;20322;-59
2022/03/03 03:44:38;;;;;;;17.80;13.10;;;;;;;4.74;59.48;99261.34;5050117;28;20263;-59
2022/03/03 03:47:05;;;;;;;16.20;12.63;;;;;;;4.75;60.32;99267.31;5050086;28;20197;-59
2022/03/03 03:49:33;;;;;;;17.67;13.07;;;;;;;4.78;59.41;99269.09;5050108;28;20195;-58
2022/03/03 03:51:59;;;;;;;15.37;12.40;;;;;;;4.81;58.87;99271.75;5049972;28;20197;-58
2022/03/03 03:54:26;;;;;;;15.70;12.67;;;;;;;4.83;58.86;99273.53;5050130;28;20190;-58
2022/03/03 03:56:53;;;;;;;14.17;12.47;;;;;;;4.81;59.03;99259.84;5050077;28;20193;-58
2022/03/03 03:59:20;;;;;;;15.45;13.80;;;;;;;4.87;59.01;99262.63;5049291;28;20529;-60
2022/03/03 04:01:48;;;;;;;14.07;12.13;;;;;;;4.85;58.82;99258.31;5049924;28;20221;-59
2022/03/03 04:04:16;;;;;;;17.77;13.40;;;;;;;4.82;58.52;99268.38;5050199;28;20200;-59
2022/03/03 04:06:43;;;;;;;14.87;12.63;;;;;;;4.82;59.08;99260.72;5049957;28;20204;-59
2022/03/03 04:09:10;;;;;;;19.27;13.43;;;;;;;4.83;58.07;99262.47;5049921;28;20193;-58
2022/03/03 04:11:36;;;;;;;15.13;12.70;;;;;;;4.85;58.34;99258.31;5049790;28;20273;-58
2022/03/03 04:14:04;;;;;;;15.33;12.13;;;;;;;4.74;58.92;99240.13;5049667;28;20188;-58
2022/03/03 04:16:31;;;;;;;16.00;12.63;;;;;;;4.86;58.87;99266.00;5044346;28;20573;-58
2022/03/03 04:19:00;;;;;;;17.20;12.57;;;;;;;4.88;58.79;99264.38;5030028;28;20201;-59
2022/03/03 04:21:27;;;;;;;16.67;13.67;;;;;;;4.72;58.13;99226.47;5044387;28;20447;-59
2022/03/03 04:23:54;;;;;;;17.57;12.97;;;;;;;4.91;58.78;99258.53;5049775;28;20190;-59
2022/03/03 04:26:21;;;;;;;16.53;12.37;;;;;;;4.85;59.06;99261.72;5049557;28;20280;-59
2022/03/03 04:28:48;;;;;;;17.30;13.60;;;;;;;4.85;59.39;99256.63;5049608;28;20308;-59
2022/03/03 04:31:15;;;;;;;17.30;14.33;;;;;;;4.89;59.24;99261.00;5049853;28;20201;-59
2022/03/03 04:33:42;;;;;;;18.43;13.87;;;;;;;4.90;59.58;99256.78;5049606;28;20196;-59
2022/03/03 04:36:11;;;;;;;17.00;13.77;;;;;;;4.85;58.38;99256.63;5049755;28;20244;-59
2022/03/03 04:38:37;;;;;;;18.08;14.23;;;;;;;4.91;59.17;99264.47;5049314;28;20440;-59
2022/03/03 04:41:04;;;;;;;17.30;13.37;;;;;;;4.92;59.41;99262.78;5050078;28;20212;-59
2022/03/03 04:43:31;;;;;;;16.60;13.10;;;;;;;4.86;58.68;99267.69;5052777;28;20666;-59
2022/03/03 04:45:58;;;;;;;16.57;14.00;;;;;;;4.83;58.97;99254.84;5053256;28;20194;-57
2022/03/03 04:48:29;;;;;;;18.63;14.40;;;;;;;4.78;59.47;99260.63;5052940;28;20204;-58
2022/03/03 04:50:57;;;;;;;17.53;14.47;;;;;;;4.75;60.03;99259.69;5052967;28;20189;-59
2022/03/03 04:53:26;;;;;;;19.50;13.50;;;;;;;4.80;60.30;99260.69;5052954;28;20256;-58
2022/03/03 04:55:53;;;;;;;20.77;14.30;;;;;;;4.82;59.74;99261.59;5052952;28;20201;-58
2022/03/03 04:58:20;;;;;;;19.90;14.47;;;;;;;4.80;60.19;99257.28;5053213;28;20275;-59
2022/03/03 05:00:47;;;;;;;16.40;13.83;;;;;;;4.75;60.36;99268.16;5052737;28;20222;-59
2022/03/03 05:03:14;;;;;;;19.95;16.60;;;;;;;4.78;59.27;99250.44;5051967;28;20443;-58
2022/03/03 05:05:41;;;;;;;17.37;14.90;;;;;;;4.84;59.84;99257.44;5051586;28;20193;-59
2022/03/03 05:08:08;;;;;;;16.43;13.80;;;;;;;4.83;60.01;99260.81;5053018;28;20221;-59
2022/03/03 05:10:36;;;;;;;16.33;14.23;;;;;;;4.81;59.07;99264.94;5052665;28;20200;-58
2022/03/03 05:13:04;;;;;;;18.97;13.93;;;;;;;4.79;59.79;99264.03;5050622;28;20200;-58
2022/03/03 05:15:31;;;;;;;20.63;14.37;;;;;;;4.85;59.89;99263.38;5051954;28;20205;-59
2022/03/03 05:17:58;;;;;;;16.80;14.17;;;;;;;4.85;59.79;99263.38;5052490;28;20210;-59
2022/03/03 05:20:25;;;;;;;18.80;14.43;;;;;;;4.73;59.41;99241.78;5052631;28;20196;-59
2022/03/03 05:22:52;;;;;;;15.33;13.40;;;;;;;4.86;59.79;99266.00;5052611;28;20196;-58
2022/03/03 05:25:19;;;;;;;17.47;14.17;;;;;;;4.87;59.00;99277.91;5052793;28;20193;-58
2022/03/03 05:27:48;;;;;;;19.57;14.43;;;;;;;4.94;59.04;99273.91;5052718;28;20254;-59
2022/03/03 05:30:15;;;;;;;18.30;14.53;;;;;;;5.00;58.88;99269.03;5052257;28;20239;-59
2022/03/03 05:32:42;;;;;;;20.17;16.37;;;;;;;5.05;58.82;99273.47;5051404;28;20435;-59
2022/03/03 05:35:09;;;;;;;20.27;15.10;;;;;;;5.18;58.53;99272.19;5051969;28;20198;-58
2022/03/03 05:37:36;;;;;;;16.53;13.93;;;;;;;5.17;57.70;99273.84;5052511;28;20238;-59
2022/03/03 05:40:04;;;;;;;18.73;14.93;;;;;;;5.18;58.87;99275.59;5052141;28;20194;-58
2022/03/03 05:42:32;;;;;;;18.37;14.90;;;;;;;5.19;58.74;99267.13;5052080;28;20217;-59
2022/03/03 05:45:01;;;;;;;18.00;14.00;;;;;;;5.18;58.35;99270.50;5051906;28;20197;-59
2022/03/03 05:47:29;;;;;;;18.57;14.57;;;;;;;5.25;58.80;99271.56;5052107;28;20795;-59
2022/03/03 05:49:58;;;;;;;19.85;17.45;;;;;;;5.31;58.89;99265.00;5051023;28;20439;-59
2022/03/03 05:52:26;;;;;;;20.73;15.07;;;;;;;5.38;57.89;99259.28;5051495;28;20575;-59
2022/03/03 05:54:53;;;;;;;23.98;15.35;;;;;;;5.45;58.06;99273.09;5051474;28;20443;-59
2022/03/03 05:57:26;;;;;;;16.83;14.30;;;;;;;5.44;57.94;99258.59;5051866;28;20197;-58
2022/03/03 05:59:53;;;;;;;19.93;14.70;;;;;;;5.53;57.82;99258.91;5051869;28;20199;-59
2022/03/03 06:02:21;;;;;;;16.77;13.63;;;;;;;5.58;57.38;99261.59;5051562;28;20213;-59
2022/03/03 06:04:49;;;;;;;24.27;14.17;;;;;;;5.60;57.46;99265.09;5051913;28;20201;-59
2022/03/03 06:07:25;;;;;;;21.50;15.77;;;;;;;5.59;57.54;99265.91;5051362;28;20206;-59
2022/03/03 06:09:53;;;;;;;18.57;14.60;;;;;;;5.62;57.39;99264.31;5050018;28;20203;-60
2022/03/03 06:12:30;;;;;;;21.73;14.50;;;;;;;5.64;57.28;99266.91;5047833;28;20197;-58
2022/03/03 06:15:03;;;;;;;20.03;14.53;;;;;;;5.65;57.09;99263.56;5050607;28;20233;-59
2022/03/03 06:17:32;;;;;;;17.93;13.97;;;;;;;5.68;56.48;99266.19;5045360;28;20252;-59
2022/03/03 06:20:01;;;;;;;18.88;16.10;;;;;;;5.68;56.75;99269.63;5047715;28;20501;-59
2022/03/03 06:22:28;;;;;;;18.13;14.83;;;;;;;5.72;56.44;99275.66;5050525;28;20217;-59
2022/03/03 06:24:56;;;;;;;16.70;13.97;;;;;;;5.75;56.89;99268.97;5050506;28;20567;-59
2022/03/03 06:27:23;;;;;;;16.83;13.93;;;;;;;5.76;57.12;99268.16;5050436;28;20190;-59
2022/03/03 06:29:50;;;;;;;16.93;13.40;;;;;;;5.81;56.85;99275.94;5050559;28;20249;-59
2022/03/03 06:32:17;;;;;;;19.00;14.30;;;;;;;5.80;56.68;99266.56;5050438;28;20245;-58
2022/03/03 06:34:45;;;;;;;19.03;13.83;;;;;;;5.83;57.61;99267.53;5048458;28;20201;-58
2022/03/03 06:37:12;;;;;;;19.23;14.70;;;;;;;5.94;57.45;99265.34;5050365;28;20197;-59
2022/03/03 06:39:39;;;;;;;18.63;14.60;;;;;;;6.01;56.95;99274.06;5050290;28;20188;-59
2022/03/03 06:42:07;;;;;;;20.30;16.47;;;;;;;6.05;57.75;99270.75;5049635;28;20452;-59
2022/03/03 06:44:34;;;;;;;22.23;16.17;;;;;;;6.06;57.35;99272.50;5050402;28;20194;-58
2022/03/03 06:47:01;;;;;;;19.20;16.70;;;;;;;6.11;57.43;99282.03;5049984;28;20196;-59
2022/03/03 06:49:29;;;;;;;19.27;15.83;;;;;;;6.25;56.78;99280.75;5047853;28;20265;-58
2022/03/03 06:51:58;;;;;;;21.03;16.50;;;;;;;6.20;57.50;99277.22;5050157;28;20189;-59
2022/03/03 06:54:25;;;;;;;20.60;16.33;;;;;;;6.26;57.51;99281.63;5048265;28;20191;-58
2022/03/03 06:56:54;;;;;;;22.33;16.37;;;;;;;6.14;57.36;99243.88;5037836;28;20288;-59
2022/03/03 06:59:22;;;;;;;25.50;17.60;;;;;;;6.41;57.58;99285.47;5050401;28;20178;-58
2022/03/03 07:01:50;;;;;;;22.10;17.20;;;;;;;6.42;57.55;99283.81;5050251;28;20227;-58
2022/03/03 07:04:18;;;;;;;25.30;18.30;;;;;;;6.62;57.62;99287.78;5049987;28;20202;-59
2022/03/03 07:06:46;;;;;;;23.27;19.80;;;;;;;6.63;56.93;99299.72;5049198;28;20810;-60
2022/03/03 07:09:15;;;;;;;20.80;17.60;;;;;;;6.60;56.88;99286.00;5050207;28;20191;-59
2022/03/03 07:11:44;;;;;;;21.67;17.90;;;;;;;6.62;56.81;99292.88;5050555;28;20200;-59
2022/03/03 07:14:11;;;;;;;22.80;17.37;;;;;;;6.68;57.30;99280.28;5059734;28;20209;-59
2022/03/03 07:16:42;;;;;;;21.60;17.23;;;;;;;6.69;56.93;99289.69;5070351;28;20280;-58
2022/03/03 07:19:19;;;;;;;22.33;17.33;;;;;;;6.68;57.99;99282.84;5070183;28;20199;-59
2022/03/03 07:21:59;;;;;;;27.73;22.27;;;;;;;6.74;58.21;99295.78;5069338;28;20529;-59
2022/03/03 07:24:30;;;;;;;22.20;18.57;;;;;;;6.84;57.55;99294.38;5069931;28;20729;-58
2022/03/03 07:27:00;;;;;;;23.03;18.20;;;;;;;6.85;58.01;99296.94;5070174;28;20199;-59
2022/03/03 07:29:33;;;;;;;20.90;17.87;;;;;;;6.99;57.07;99290.53;5065833;28;20788;-59
2022/03/03 07:32:05;;;;;;;22.30;16.67;;;;;;;7.07;56.77;99285.63;5058657;28;20723;-59
2022/03/03 07:34:33;;;;;;;21.73;16.97;;;;;;;7.04;57.43;99288.97;5050166;28;20294;-59
2022/03/03 07:37:07;;;;;;;22.97;17.10;;;;;;;7.29;56.85;99294.72;5049593;28;20227;-59
2022/03/03 07:39:40;;;;;;;21.77;18.27;;;;;;;7.35;56.73;99290.63;5049857;28;20287;-60
2022/03/03 07:42:11;;;;;;;20.67;16.47;;;;;;;7.48;55.58;99284.13;5050690;28;20217;-60
2022/03/03 07:44:38;;;;;;;20.10;15.63;;;;;;;7.46;55.91;99286.66;5049956;28;20494;-59
2022/03/03 07:47:07;;;;;;;21.40;16.20;;;;;;;7.58;55.76;99286.94;5049853;28;20283;-59
2022/03/03 07:49:34;;;;;;;22.77;17.33;;;;;;;7.69;55.41;99293.19;5049622;28;20202;-59
2022/03/03 07:52:02;;;;;;;21.43;16.33;;;;;;;7.88;55.75;99285.97;5049486;28;20282;-58
2022/03/03 07:54:29;;;;;;;20.17;15.90;;;;;;;7.95;55.01;99292.94;5049447;28;20680;-59
2022/03/03 07:56:59;;;;;;;21.07;16.20;;;;;;;8.06;54.54;99286.38;5048857;28;20203;-58
2022/03/03 07:59:28;;;;;;;22.27;17.23;;;;;;;8.19;54.58;99304.59;5048183;28;20205;-59
2022/03/03 08:01:58;;;;;;;24.87;18.93;;;;;;;8.43;53.74;99303.47;5048948;28;20220;-59
2022/03/03 08:04:29;;;;;;;21.67;17.67;;;;;;;8.59;52.84;99303.81;5049365;28;20201;-59
2022/03/03 08:07:04;;;;;;;22.77;17.73;;;;;;;8.53;53.07;99298.56;5047371;28;20621;-59
2022/03/03 08:09:33;;;;;;;20.10;17.03;;;;;;;8.49;53.34;99291.63;5047470;28;20199;-58
2022/03/03 08:12:05;;;;;;;22.30;17.40;;;;;;;8.55;53.24;99298.56;5047231;28;20194;-60
2022/03/03 08:14:32;;;;;;;21.27;16.70;;;;;;;8.44;52.81;99290.66;5047727;28;20287;-58
2022/03/03 08:17:00;;;;;;;21.37;17.60;;;;;;;8.45;52.53;99297.53;5049584;28;20196;-59
2022/03/03 08:19:27;;;;;;;20.93;16.50;;;;;;;8.52;52.80;99295.94;5051129;28;20195;-62
2022/03/03 08:21:54;;;;;;;22.17;17.03;;;;;;;8.54;52.81;99300.25;5052146;28;20707;-58
2022/03/03 08:24:22;;;;;;;21.33;17.20;;;;;;;8.36;52.66;99287.09;5053270;28;20205;-59
2022/03/03 08:26:49;;;;;;;23.40;18.58;;;;;;;8.43;52.91;99296.66;5052704;28;20912;-58
2022/03/03 08:29:17;;;;;;;22.73;17.33;;;;;;;8.38;52.33;99293.09;5052954;28;20222;-61
2022/03/03 08:31:51;;;;;;;23.03;16.10;;;;;;;8.20;52.20;99275.63;5052935;28;20201;-59
2022/03/03 08:34:29;;;;;;;19.57;15.80;;;;;;;8.30;52.39;99286.94;5052905;28;20290;-60
2022/03/03 08:37:00;;;;;;;18.67;14.73;;;;;;;8.05;52.13;99294.88;5052938;28;20206;-59
2022/03/03 08:39:29;;;;;;;21.70;15.87;;;;;;;7.85;52.54;99293.56;5052932;28;20197;-59
2022/03/03 08:41:57;;;;;;;22.83;16.00;;;;;;;7.97;53.22;99288.72;5052651;28;20276;-58
2022/03/03 08:44:28;;;;;;;21.67;15.90;;;;;;;8.13;52.85;99295.94;5057531;28;20285;-58
2022/03/03 08:46:58;;;;;;;19.77;16.33;;;;;;;8.14;52.18;99297.66;5062681;28;20947;-59
2022/03/03 08:49:30;;;;;;;19.60;16.00;;;;;;;8.05;52.54;99287.19;5072974;28;20193;-58
2022/03/03 08:51:57;;;;;;;22.38;19.30;;;;;;;8.17;52.67;99297.72;5066080;28;20822;-60
2022/03/03 08:54:24;;;;;;;21.63;17.07;;;;;;;8.48;51.82;99295.03;5061278;28;20208;-59
2022/03/03 08:56:51;;;;;;;17.97;15.77;;;;;;;8.46;51.77;99304.34;5072422;28;20191;-60
2022/03/03 08:59:18;;;;;;;19.73;15.80;;;;;;;8.59;51.37;99296.13;5061254;28;20278;-59
2022/03/03 09:01:47;;;;;;;20.33;16.50;;;;;;;8.77;51.28;99299.06;5051986;28;20200;-59
2022/03/03 09:04:14;;;;;;;24.77;15.17;;;;;;;8.91;50.98;99294.19;5052326;28;20192;-60
2022/03/03 09:06:41;;;;;;;20.60;15.70;;;;;;;9.01;50.88;99310.63;5052097;28;20634;-58
2022/03/03 09:09:08;;;;;;;22.47;17.03;;;;;;;8.94;50.85;99306.22;5050370;28;20195;-59
2022/03/03 09:11:35;;;;;;;20.97;16.77;;;;;;;9.00;51.08;99299.50;5051811;28;20247;-59
2022/03/03 09:14:02;;;;;;;21.33;16.13;;;;;;;9.11;50.68;99305.72;5052890;28;20284;-60
2022/03/03 09:16:28;;;;;;;20.53;15.97;;;;;;;9.17;50.21;99292.16;5052893;28;20191;-58
2022/03/03 09:18:58;;;;;;;19.23;14.27;;;;;;;9.38;49.23;99305.34;5051868;28;20202;-59
2022/03/03 09:21:25;;;;;;;14.30;11.67;;;;;;;9.51;47.80;99302.16;5052194;28;20200;-59
2022/03/03 09:23:52;;;;;;;21.73;13.93;;;;;;;9.51;47.93;99309.84;5052015;28;20315;-59
2022/03/03 09:26:19;;;;;;;16.63;13.60;;;;;;;9.77;47.63;99300.91;5052302;28;20191;-59
2022/03/03 09:28:46;;;;;;;15.10;11.87;;;;;;;9.81;46.63;99315.47;5050483;28;20613;-60
2022/03/03 09:31:13;;;;;;;17.00;11.90;;;;;;;9.60;47.06;99315.13;5052149;28;20248;-60
2022/03/03 09:33:40;;;;;;;15.97;12.50;;;;;;;9.55;47.77;99321.91;5051810;28;20279;-59
2022/03/03 09:36:08;;;;;;;19.17;12.93;;;;;;;9.65;47.87;99318.63;5051947;28;20191;-59
2022/03/03 09:38:35;;;;;;;21.38;13.75;;;;;;;9.85;47.16;99304.44;5050509;28;20435;-58
2022/03/03 09:41:02;;;;;;;19.27;14.17;;;;;;;9.97;46.60;99304.63;5049765;28;20210;-60
2022/03/03 09:43:29;;;;;;;13.80;11.70;;;;;;;9.80;46.06;99290.69;5050808;28;20447;-60
2022/03/03 09:45:56;;;;;;;14.50;11.77;;;;;;;9.71;46.84;99312.75;5051021;28;20639;-59
2022/03/03 09:48:23;;;;;;;13.83;11.23;;;;;;;9.58;47.56;99315.94;5050870;28;20681;-59
2022/03/03 09:50:50;;;;;;;13.37;11.93;;;;;;;9.77;47.05;99315.41;5049399;28;20210;-59
2022/03/03 09:53:19;;;;;;;14.77;11.50;;;;;;;9.80;47.17;99320.59;5060508;28;20195;-59
2022/03/03 09:55:49;;;;;;;12.23;10.33;;;;;;;9.62;47.14;99318.56;5071273;28;20202;-60
2022/03/03 09:58:17;;;;;;;13.33;10.47;;;;;;;9.42;46.43;99315.66;5056504;28;20203;-60
2022/03/03 10:00:46;;;;;;;19.37;12.63;;;;;;;9.54;46.69;99311.59;5060931;28;20198;-60
2022/03/03 10:03:14;;;;;;;14.40;11.00;;;;;;;9.25;46.90;99288.00;5071146;28;20222;-60
2022/03/03 10:05:47;;;;;;;14.60;11.47;;;;;;;9.35;46.93;99315.53;5070924;28;20195;-60
2022/03/03 10:08:15;;;;;;;14.00;10.80;;;;;;;9.21;47.24;99305.03;5049301;28;20226;-60
2022/03/03 10:10:46;;;;;;;12.33;9.30;;;;;;;9.15;46.84;99306.59;5050190;28;20207;-61
2022/03/03 10:13:16;;;;;;;11.17;9.60;;;;;;;9.02;46.98;99305.53;5052109;28;20195;-61
2022/03/03 10:15:44;;;;;;;13.77;10.20;;;;;;;8.93;47.26;99320.72;5053275;28;20195;-60
2022/03/03 10:18:13;;;;;;;17.73;12.77;;;;;;;8.84;48.29;99294.94;5054246;28;20204;-60
2022/03/03 10:20:49;;;;;;;13.02;10.48;;;;;;;8.85;48.14;99294.94;5048848;28;20910;-61
2022/03/03 10:23:17;;;;;;;24.90;15.93;;;;;;;8.84;48.58;99300.06;5049097;28;20242;-61
2022/03/03 10:25:47;;;;;;;18.97;13.57;;;;;;;8.89;48.58;99304.44;5049298;28;20202;-61
2022/03/03 10:28:16;;;;;;;13.90;10.67;;;;;;;9.10;48.03;99293.72;5047920;28;20207;-59
2022/03/03 10:31:01;;;;;;;14.40;11.07;;;;;;;9.16;48.48;99293.84;5050555;28;20196;-60
2022/03/03 10:33:30;;;;;;;13.70;10.30;;;;;;;9.16;47.52;99303.22;5050366;28;20184;-60
2022/03/03 10:36:12;;;;;;;14.07;10.33;;;;;;;9.14;46.50;99290.38;5050454;28;20188;-60
2022/03/03 10:38:47;;;;;;;14.57;10.33;;;;;;;9.26;46.19;99276.91;5049960;28;20720;-61
2022/03/03 10:41:33;;;;;;;12.10;9.33;;;;;;;9.23;45.38;99282.00;5050218;28;20620;-60
2022/03/03 10:44:01;;;;;;;16.87;10.30;;;;;;;9.25;46.48;99280.31;5048711;28;20298;-60
2022/03/03 10:46:28;;;;;;;16.00;11.47;;;;;;;9.25;47.51;99255.56;5049270;28;20199;-59
2022/03/03 10:48:55;;;;;;;14.17;11.00;;;;;;;9.48;46.80;99271.31;5048648;28;20210;-61
2022/03/03 10:51:24;;;;;;;18.07;12.67;;;;;;;9.57;47.13;99265.47;5049073;28;20283;-61
2022/03/03 10:53:55;;;;;;;15.77;11.73;;;;;;;9.33;47.70;99251.44;5048704;28;20199;-60
2022/03/03 10:56:22;;;;;;;16.67;11.63;;;;;;;9.07;46.44;99226.16;5048942;28;20202;-61
2022/03/03 10:58:55;;;;;;;12.40;10.67;;;;;;;9.20;45.97;99271.69;5048726;28;20197;-60
2022/03/03 11:01:24;;;;;;;14.27;12.13;;;;;;;9.08;46.64;99277.47;5048761;28;20224;-58
2022/03/03 11:03:51;;;;;;;18.03;11.27;;;;;;;9.07;46.66;99273.16;5049874;28;20243;-59
2022/03/03 11:06:20;;;;;;;13.37;11.17;;;;;;;9.27;46.49;99269.25;5049864;28;20203;-59
2022/03/03 11:08:49;;;;;;;15.23;13.13;;;;;;;9.55;46.37;99265.47;5049311;28;20435;-60
2022/03/03 11:11:16;;;;;;;13.60;11.23;;;;;;;9.70;45.23;99283.66;5049986;28;20218;-61
2022/03/03 11:13:44;;;;;;;19.40;12.10;;;;;;;9.70;45.30;99269.97;5049615;28;20435;-61
2022/03/03 11:16:12;;;;;;;14.60;10.47;;;;;;;9.64;44.83;99260.47;5049878;28;20195;-60
2022/03/03 11:18:40;;;;;;;12.33;10.23;;;;;;;9.73;44.52;99264.88;5049598;28;20218;-61
2022/03/03 11:21:08;;;;;;;14.13;10.13;;;;;;;9.78;44.15;99261.56;5049629;28;20208;-61
2022/03/03 11:23:44;;;;;;;11.43;10.23;;;;;;;9.79;44.31;99268.41;5049378;28;20223;-61
2022/03/03 11:26:21;;;;;;;13.17;10.20;;;;;;;9.65;44.37;99275.03;5049467;28;20198;-63
2022/03/03 11:29:00;;;;;;;14.30;11.37;;;;;;;9.43;45.66;99267.81;5049334;28;20231;-61